sensor_id;sensor_type;location;lat;lon;timestamp;P1;durP1;ratioP1;P2;durP2;ratioP2
30896;SDS011;64229;52.246;21.054;2023-04-25T00:00:53;19.45;;;11.35;;
30896;SDS011;64229;52.246;21.054;2023-04-25T00:03:19;18.85;;;9.98;;
30896;SDS011;64229;52.246;21.054;2023-04-25T00:05:45;17.00;;;11.35;;
30896;SDS011;64229;52.246;21.054;2023-04-25T00:08:11;15.10;;;10.68;;
30896;SDS011;64229;52.246;21.054;2023-04-25T00:10:36;18.45;;;12.00;;
30896;SDS011;64229;52.246;21.054;2023-04-25T00:13:02;20.17;;;11.57;;
30896;SDS011;64229;52.246;21.054;2023-04-25T00:15:27;18.38;;;11.05;;
30896;SDS011;64229;52.246;21.054;2023-04-25T00:17:55;19.70;;;11.45;;
30896;SDS011;64229;52.246;21.054;2023-04-25T00:20:21;20.85;;;11.07;;
30896;SDS011;64229;52.246;21.054;2023-04-25T00:22:48;20.30;;;12.73;;
30896;SDS011;64229;52.246;21.054;2023-04-25T00:25:14;17.73;;;11.68;;
30896;SDS011;64229;52.246;21.054;2023-04-25T00:27:39;17.23;;;12.07;;
30896;SDS011;64229;52.246;21.054;2023-04-25T00:30:04;21.90;;;12.07;;
30896;SDS011;64229;52.246;21.054;2023-04-25T00:32:30;18.35;;;12.45;;
30896;SDS011;64229;52.246;21.054;2023-04-25T00:34:56;21.45;;;12.43;;
30896;SDS011;64229;52.246;21.054;2023-04-25T00:37:22;19.52;;;12.60;;
30896;SDS011;64229;52.246;21.054;2023-04-25T00:39:48;21.13;;;13.10;;
30896;SDS011;64229;52.246;21.054;2023-04-25T00:42:14;22.80;;;13.25;;
30896;SDS011;64229;52.246;21.054;2023-04-25T00:44:40;19.15;;;12.98;;
30896;SDS011;64229;52.246;21.054;2023-04-25T00:47:07;20.33;;;12.40;;
30896;SDS011;64229;52.246;21.054;2023-04-25T00:49:32;18.17;;;12.18;;
30896;SDS011;64229;52.246;21.054;2023-04-25T00:51:58;19.60;;;12.25;;
30896;SDS011;64229;52.246;21.054;2023-04-25T00:54:24;18.63;;;12.73;;
30896;SDS011;64229;52.246;21.054;2023-04-25T00:56:50;18.63;;;12.23;;
30896;SDS011;64229;52.246;21.054;2023-04-25T00:59:15;22.42;;;13.15;;
30896;SDS011;64229;52.246;21.054;2023-04-25T01:01:42;18.73;;;12.63;;
30896;SDS011;64229;52.246;21.054;2023-04-25T01:04:08;21.13;;;13.20;;
30896;SDS011;64229;52.246;21.054;2023-04-25T01:06:34;20.73;;;13.32;;
30896;SDS011;64229;52.246;21.054;2023-04-25T01:09:00;22.95;;;14.02;;
30896;SDS011;64229;52.246;21.054;2023-04-25T01:11:27;22.05;;;13.43;;
30896;SDS011;64229;52.246;21.054;2023-04-25T01:13:52;23.55;;;14.48;;
30896;SDS011;64229;52.246;21.054;2023-04-25T01:16:17;21.42;;;14.27;;
30896;SDS011;64229;52.246;21.054;2023-04-25T01:18:45;19.60;;;13.18;;
30896;SDS011;64229;52.246;21.054;2023-04-25T01:21:12;21.33;;;13.48;;
30896;SDS011;64229;52.246;21.054;2023-04-25T01:23:38;23.70;;;14.10;;
30896;SDS011;64229;52.246;21.054;2023-04-25T01:26:05;23.60;;;14.45;;
30896;SDS011;64229;52.246;21.054;2023-04-25T01:28:33;21.58;;;13.30;;
30896;SDS011;64229;52.246;21.054;2023-04-25T01:30:59;18.88;;;13.32;;
30896;SDS011;64229;52.246;21.054;2023-04-25T01:33:24;22.83;;;14.32;;
30896;SDS011;64229;52.246;21.054;2023-04-25T01:35:50;21.67;;;13.38;;
30896;SDS011;64229;52.246;21.054;2023-04-25T01:38:16;19.85;;;13.98;;
30896;SDS011;64229;52.246;21.054;2023-04-25T01:40:41;20.40;;;12.85;;
30896;SDS011;64229;52.246;21.054;2023-04-25T01:43:09;19.42;;;12.43;;
30896;SDS011;64229;52.246;21.054;2023-04-25T01:45:37;19.92;;;11.88;;
30896;SDS011;64229;52.246;21.054;2023-04-25T01:48:05;19.67;;;12.15;;
30896;SDS011;64229;52.246;21.054;2023-04-25T01:50:32;18.45;;;11.70;;
30896;SDS011;64229;52.246;21.054;2023-04-25T01:52:57;17.17;;;11.25;;
30896;SDS011;64229;52.246;21.054;2023-04-25T01:55:23;16.27;;;11.10;;
30896;SDS011;64229;52.246;21.054;2023-04-25T01:57:49;18.58;;;11.70;;
30896;SDS011;64229;52.246;21.054;2023-04-25T02:00:14;17.98;;;11.73;;
30896;SDS011;64229;52.246;21.054;2023-04-25T02:02:40;23.33;;;12.32;;
30896;SDS011;64229;52.246;21.054;2023-04-25T02:05:05;20.48;;;12.73;;
30896;SDS011;64229;52.246;21.054;2023-04-25T02:07:31;20.00;;;12.10;;
30896;SDS011;64229;52.246;21.054;2023-04-25T02:09:57;20.88;;;12.93;;
30896;SDS011;64229;52.246;21.054;2023-04-25T02:12:22;18.73;;;11.80;;
30896;SDS011;64229;52.246;21.054;2023-04-25T02:14:49;18.48;;;11.48;;
30896;SDS011;64229;52.246;21.054;2023-04-25T02:17:14;20.10;;;11.95;;
30896;SDS011;64229;52.246;21.054;2023-04-25T02:19:40;17.15;;;10.98;;
30896;SDS011;64229;52.246;21.054;2023-04-25T02:22:06;20.83;;;11.93;;
30896;SDS011;64229;52.246;21.054;2023-04-25T02:24:31;19.00;;;11.43;;
30896;SDS011;64229;52.246;21.054;2023-04-25T02:26:58;17.35;;;10.50;;
30896;SDS011;64229;52.246;21.054;2023-04-25T02:29:23;18.20;;;10.65;;
30896;SDS011;64229;52.246;21.054;2023-04-25T02:31:49;18.83;;;10.82;;
30896;SDS011;64229;52.246;21.054;2023-04-25T02:34:14;18.80;;;11.70;;
30896;SDS011;64229;52.246;21.054;2023-04-25T02:36:40;17.50;;;10.70;;
30896;SDS011;64229;52.246;21.054;2023-04-25T02:39:06;18.05;;;11.20;;
30896;SDS011;64229;52.246;21.054;2023-04-25T02:41:31;16.42;;;10.75;;
30896;SDS011;64229;52.246;21.054;2023-04-25T02:43:56;16.80;;;10.40;;
30896;SDS011;64229;52.246;21.054;2023-04-25T02:46:22;16.95;;;10.68;;
30896;SDS011;64229;52.246;21.054;2023-04-25T02:48:47;16.00;;;9.82;;
30896;SDS011;64229;52.246;21.054;2023-04-25T02:51:12;21.33;;;10.68;;
30896;SDS011;64229;52.246;21.054;2023-04-25T02:53:38;16.20;;;10.05;;
30896;SDS011;64229;52.246;21.054;2023-04-25T02:56:04;16.90;;;10.05;;
30896;SDS011;64229;52.246;21.054;2023-04-25T02:58:30;15.50;;;9.55;;
30896;SDS011;64229;52.246;21.054;2023-04-25T03:00:55;14.77;;;9.20;;
30896;SDS011;64229;52.246;21.054;2023-04-25T03:03:20;16.83;;;10.15;;
30896;SDS011;64229;52.246;21.054;2023-04-25T03:05:52;16.67;;;9.50;;
30896;SDS011;64229;52.246;21.054;2023-04-25T03:08:17;17.77;;;9.52;;
30896;SDS011;64229;52.246;21.054;2023-04-25T03:10:44;17.35;;;9.05;;
30896;SDS011;64229;52.246;21.054;2023-04-25T03:13:10;24.08;;;9.48;;
30896;SDS011;64229;52.246;21.054;2023-04-25T03:15:35;18.40;;;9.10;;
30896;SDS011;64229;52.246;21.054;2023-04-25T03:18:01;18.45;;;9.25;;
30896;SDS011;64229;52.246;21.054;2023-04-25T03:20:27;15.25;;;9.13;;
30896;SDS011;64229;52.246;21.054;2023-04-25T03:22:52;16.48;;;9.48;;
30896;SDS011;64229;52.246;21.054;2023-04-25T03:25:18;17.13;;;9.65;;
30896;SDS011;64229;52.246;21.054;2023-04-25T03:27:43;16.65;;;9.52;;
30896;SDS011;64229;52.246;21.054;2023-04-25T03:30:09;16.85;;;9.43;;
30896;SDS011;64229;52.246;21.054;2023-04-25T03:32:34;14.35;;;8.40;;
30896;SDS011;64229;52.246;21.054;2023-04-25T03:35:00;17.63;;;8.30;;
30896;SDS011;64229;52.246;21.054;2023-04-25T03:37:25;13.48;;;7.97;;
30896;SDS011;64229;52.246;21.054;2023-04-25T03:39:51;14.75;;;8.65;;
30896;SDS011;64229;52.246;21.054;2023-04-25T03:42:16;16.60;;;9.10;;
30896;SDS011;64229;52.246;21.054;2023-04-25T03:44:41;14.27;;;9.05;;
30896;SDS011;64229;52.246;21.054;2023-04-25T03:47:07;13.68;;;8.23;;
30896;SDS011;64229;52.246;21.054;2023-04-25T03:49:32;16.45;;;8.43;;
30896;SDS011;64229;52.246;21.054;2023-04-25T03:51:59;14.45;;;8.07;;
30896;SDS011;64229;52.246;21.054;2023-04-25T03:54:25;13.65;;;8.27;;
30896;SDS011;64229;52.246;21.054;2023-04-25T03:56:50;19.13;;;9.00;;
30896;SDS011;64229;52.246;21.054;2023-04-25T03:59:15;15.43;;;8.88;;
30896;SDS011;64229;52.246;21.054;2023-04-25T04:01:41;18.55;;;8.48;;
30896;SDS011;64229;52.246;21.054;2023-04-25T04:04:06;14.02;;;8.27;;
30896;SDS011;64229;52.246;21.054;2023-04-25T04:06:31;14.65;;;8.65;;
30896;SDS011;64229;52.246;21.054;2023-04-25T04:08:57;15.23;;;8.35;;
30896;SDS011;64229;52.246;21.054;2023-04-25T04:11:22;14.02;;;8.30;;
30896;SDS011;64229;52.246;21.054;2023-04-25T04:13:47;16.63;;;8.70;;
30896;SDS011;64229;52.246;21.054;2023-04-25T04:16:12;15.40;;;8.10;;
30896;SDS011;64229;52.246;21.054;2023-04-25T04:18:38;11.88;;;7.80;;
30896;SDS011;64229;52.246;21.054;2023-04-25T04:21:03;12.68;;;7.50;;
30896;SDS011;64229;52.246;21.054;2023-04-25T04:23:29;12.88;;;7.78;;
30896;SDS011;64229;52.246;21.054;2023-04-25T04:25:54;13.95;;;8.38;;
30896;SDS011;64229;52.246;21.054;2023-04-25T04:28:20;14.18;;;8.10;;
30896;SDS011;64229;52.246;21.054;2023-04-25T04:30:46;14.55;;;8.70;;
30896;SDS011;64229;52.246;21.054;2023-04-25T04:33:12;14.45;;;8.27;;
30896;SDS011;64229;52.246;21.054;2023-04-25T04:35:37;15.20;;;8.18;;
30896;SDS011;64229;52.246;21.054;2023-04-25T04:38:03;13.45;;;8.52;;
30896;SDS011;64229;52.246;21.054;2023-04-25T04:40:28;18.40;;;9.02;;
30896;SDS011;64229;52.246;21.054;2023-04-25T04:42:56;15.95;;;8.60;;
30896;SDS011;64229;52.246;21.054;2023-04-25T04:45:22;15.43;;;8.18;;
30896;SDS011;64229;52.246;21.054;2023-04-25T04:47:47;12.82;;;7.88;;
30896;SDS011;64229;52.246;21.054;2023-04-25T04:50:13;15.75;;;8.18;;
30896;SDS011;64229;52.246;21.054;2023-04-25T04:52:39;14.00;;;7.68;;
30896;SDS011;64229;52.246;21.054;2023-04-25T04:55:05;17.25;;;7.65;;
30896;SDS011;64229;52.246;21.054;2023-04-25T04:57:31;14.35;;;7.32;;
30896;SDS011;64229;52.246;21.054;2023-04-25T04:59:58;14.45;;;8.07;;
30896;SDS011;64229;52.246;21.054;2023-04-25T05:02:24;12.15;;;7.72;;
30896;SDS011;64229;52.246;21.054;2023-04-25T05:04:50;12.60;;;7.88;;
30896;SDS011;64229;52.246;21.054;2023-04-25T05:07:16;12.05;;;8.13;;
30896;SDS011;64229;52.246;21.054;2023-04-25T05:09:42;12.73;;;8.18;;
30896;SDS011;64229;52.246;21.054;2023-04-25T05:12:07;15.50;;;7.13;;
30896;SDS011;64229;52.246;21.054;2023-04-25T05:14:32;13.65;;;7.97;;
30896;SDS011;64229;52.246;21.054;2023-04-25T05:16:58;10.23;;;7.57;;
30896;SDS011;64229;52.246;21.054;2023-04-25T05:19:23;13.25;;;7.78;;
30896;SDS011;64229;52.246;21.054;2023-04-25T05:21:49;11.40;;;7.78;;
30896;SDS011;64229;52.246;21.054;2023-04-25T05:24:14;17.63;;;8.02;;
30896;SDS011;64229;52.246;21.054;2023-04-25T05:26:40;11.27;;;8.35;;
30896;SDS011;64229;52.246;21.054;2023-04-25T05:29:05;13.77;;;8.57;;
30896;SDS011;64229;52.246;21.054;2023-04-25T05:31:31;12.45;;;8.02;;
30896;SDS011;64229;52.246;21.054;2023-04-25T05:33:57;12.55;;;8.30;;
30896;SDS011;64229;52.246;21.054;2023-04-25T05:36:22;13.55;;;8.38;;
30896;SDS011;64229;52.246;21.054;2023-04-25T05:38:48;10.05;;;7.40;;
30896;SDS011;64229;52.246;21.054;2023-04-25T05:41:13;13.85;;;9.10;;
30896;SDS011;64229;52.246;21.054;2023-04-25T05:43:38;11.68;;;8.25;;
30896;SDS011;64229;52.246;21.054;2023-04-25T05:46:03;20.88;;;10.25;;
30896;SDS011;64229;52.246;21.054;2023-04-25T05:48:29;17.67;;;9.75;;
30896;SDS011;64229;52.246;21.054;2023-04-25T05:50:55;14.18;;;8.93;;
30896;SDS011;64229;52.246;21.054;2023-04-25T05:53:20;14.68;;;9.38;;
30896;SDS011;64229;52.246;21.054;2023-04-25T05:55:46;13.65;;;9.13;;
30896;SDS011;64229;52.246;21.054;2023-04-25T05:58:12;15.13;;;9.35;;
30896;SDS011;64229;52.246;21.054;2023-04-25T06:00:38;12.10;;;8.70;;
30896;SDS011;64229;52.246;21.054;2023-04-25T06:03:03;14.40;;;8.63;;
30896;SDS011;64229;52.246;21.054;2023-04-25T06:05:29;13.25;;;9.00;;
30896;SDS011;64229;52.246;21.054;2023-04-25T06:07:54;12.30;;;8.35;;
30896;SDS011;64229;52.246;21.054;2023-04-25T06:10:20;12.27;;;8.20;;
30896;SDS011;64229;52.246;21.054;2023-04-25T06:12:45;16.17;;;9.27;;
30896;SDS011;64229;52.246;21.054;2023-04-25T06:15:11;11.88;;;8.88;;
30896;SDS011;64229;52.246;21.054;2023-04-25T06:17:36;15.73;;;9.05;;
30896;SDS011;64229;52.246;21.054;2023-04-25T06:20:02;12.23;;;8.73;;
30896;SDS011;64229;52.246;21.054;2023-04-25T06:22:28;15.13;;;9.27;;
30896;SDS011;64229;52.246;21.054;2023-04-25T06:24:54;15.68;;;9.38;;
30896;SDS011;64229;52.246;21.054;2023-04-25T06:27:22;11.75;;;9.15;;
30896;SDS011;64229;52.246;21.054;2023-04-25T06:29:47;12.80;;;8.43;;
30896;SDS011;64229;52.246;21.054;2023-04-25T06:32:12;12.43;;;8.40;;
30896;SDS011;64229;52.246;21.054;2023-04-25T06:34:38;12.45;;;8.45;;
30896;SDS011;64229;52.246;21.054;2023-04-25T06:37:03;12.38;;;8.77;;
30896;SDS011;64229;52.246;21.054;2023-04-25T06:39:28;13.50;;;9.70;;
30896;SDS011;64229;52.246;21.054;2023-04-25T06:41:54;15.88;;;10.05;;
30896;SDS011;64229;52.246;21.054;2023-04-25T06:44:19;13.93;;;9.80;;
30896;SDS011;64229;52.246;21.054;2023-04-25T06:46:44;13.77;;;10.02;;
30896;SDS011;64229;52.246;21.054;2023-04-25T06:49:10;16.02;;;11.32;;
30896;SDS011;64229;52.246;21.054;2023-04-25T06:51:35;14.40;;;10.93;;
30896;SDS011;64229;52.246;21.054;2023-04-25T06:54:00;16.13;;;10.27;;
30896;SDS011;64229;52.246;21.054;2023-04-25T06:56:26;15.68;;;10.05;;
30896;SDS011;64229;52.246;21.054;2023-04-25T06:58:52;13.98;;;8.68;;
30896;SDS011;64229;52.246;21.054;2023-04-25T07:01:18;13.82;;;8.65;;
30896;SDS011;64229;52.246;21.054;2023-04-25T07:03:43;13.95;;;8.55;;
30896;SDS011;64229;52.246;21.054;2023-04-25T07:06:09;14.20;;;8.23;;
30896;SDS011;64229;52.246;21.054;2023-04-25T07:08:34;12.30;;;7.97;;
30896;SDS011;64229;52.246;21.054;2023-04-25T07:10:59;12.35;;;8.27;;
30896;SDS011;64229;52.246;21.054;2023-04-25T07:13:25;11.95;;;7.88;;
30896;SDS011;64229;52.246;21.054;2023-04-25T07:15:50;12.95;;;8.18;;
30896;SDS011;64229;52.246;21.054;2023-04-25T07:18:15;13.90;;;9.10;;
30896;SDS011;64229;52.246;21.054;2023-04-25T07:20:41;12.80;;;8.20;;
30896;SDS011;64229;52.246;21.054;2023-04-25T07:23:06;14.18;;;8.57;;
30896;SDS011;64229;52.246;21.054;2023-04-25T07:25:31;14.13;;;8.48;;
30896;SDS011;64229;52.246;21.054;2023-04-25T07:27:57;14.55;;;8.80;;
30896;SDS011;64229;52.246;21.054;2023-04-25T07:30:22;13.57;;;9.05;;
30896;SDS011;64229;52.246;21.054;2023-04-25T07:32:48;11.85;;;8.18;;
30896;SDS011;64229;52.246;21.054;2023-04-25T07:35:15;14.93;;;8.77;;
30896;SDS011;64229;52.246;21.054;2023-04-25T07:37:41;11.77;;;7.97;;
30896;SDS011;64229;52.246;21.054;2023-04-25T07:40:06;11.68;;;7.38;;
30896;SDS011;64229;52.246;21.054;2023-04-25T07:42:34;10.65;;;7.18;;
30896;SDS011;64229;52.246;21.054;2023-04-25T07:44:59;10.90;;;7.15;;
30896;SDS011;64229;52.246;21.054;2023-04-25T07:47:25;9.88;;;6.88;;
30896;SDS011;64229;52.246;21.054;2023-04-25T07:49:51;11.02;;;6.72;;
30896;SDS011;64229;52.246;21.054;2023-04-25T07:52:16;11.82;;;8.13;;
30896;SDS011;64229;52.246;21.054;2023-04-25T07:54:42;10.95;;;6.85;;
30896;SDS011;64229;52.246;21.054;2023-04-25T07:57:07;12.82;;;8.00;;
30896;SDS011;64229;52.246;21.054;2023-04-25T07:59:33;10.48;;;7.68;;
30896;SDS011;64229;52.246;21.054;2023-04-25T08:01:58;11.35;;;8.45;;
30896;SDS011;64229;52.246;21.054;2023-04-25T08:04:25;13.60;;;8.77;;
30896;SDS011;64229;52.246;21.054;2023-04-25T08:06:50;12.52;;;8.77;;
30896;SDS011;64229;52.246;21.054;2023-04-25T08:09:17;13.38;;;8.68;;
30896;SDS011;64229;52.246;21.054;2023-04-25T08:11:42;13.40;;;8.32;;
30896;SDS011;64229;52.246;21.054;2023-04-25T08:14:08;11.73;;;8.95;;
30896;SDS011;64229;52.246;21.054;2023-04-25T08:16:33;12.20;;;8.48;;
30896;SDS011;64229;52.246;21.054;2023-04-25T08:18:59;12.20;;;8.38;;
30896;SDS011;64229;52.246;21.054;2023-04-25T08:21:25;12.32;;;8.63;;
30896;SDS011;64229;52.246;21.054;2023-04-25T08:23:51;12.02;;;8.90;;
30896;SDS011;64229;52.246;21.054;2023-04-25T08:26:17;15.02;;;9.73;;
30896;SDS011;64229;52.246;21.054;2023-04-25T08:28:43;17.45;;;10.57;;
30896;SDS011;64229;52.246;21.054;2023-04-25T08:31:08;13.95;;;9.65;;
30896;SDS011;64229;52.246;21.054;2023-04-25T08:33:33;12.07;;;8.32;;
30896;SDS011;64229;52.246;21.054;2023-04-25T08:35:59;11.18;;;8.43;;
30896;SDS011;64229;52.246;21.054;2023-04-25T08:38:24;10.05;;;7.78;;
30896;SDS011;64229;52.246;21.054;2023-04-25T08:40:50;11.85;;;7.80;;
30896;SDS011;64229;52.246;21.054;2023-04-25T08:43:19;10.15;;;7.65;;
30896;SDS011;64229;52.246;21.054;2023-04-25T08:45:45;12.10;;;7.82;;
30896;SDS011;64229;52.246;21.054;2023-04-25T08:48:11;9.65;;;7.55;;
30896;SDS011;64229;52.246;21.054;2023-04-25T08:53:21;10.05;;;7.70;;
30896;SDS011;64229;52.246;21.054;2023-04-25T08:55:50;10.07;;;7.88;;
30896;SDS011;64229;52.246;21.054;2023-04-25T08:58:18;8.98;;;6.88;;
30896;SDS011;64229;52.246;21.054;2023-04-25T09:00:45;8.90;;;6.93;;
30896;SDS011;64229;52.246;21.054;2023-04-25T09:03:11;10.57;;;6.82;;
30896;SDS011;64229;52.246;21.054;2023-04-25T09:05:37;11.85;;;7.35;;
30896;SDS011;64229;52.246;21.054;2023-04-25T09:08:05;9.13;;;7.05;;
30896;SDS011;64229;52.246;21.054;2023-04-25T09:10:30;10.98;;;7.35;;
30896;SDS011;64229;52.246;21.054;2023-04-25T09:13:08;9.85;;;7.22;;
30896;SDS011;64229;52.246;21.054;2023-04-25T09:15:50;9.52;;;7.25;;
30896;SDS011;64229;52.246;21.054;2023-04-25T09:20:58;12.02;;;8.02;;
30896;SDS011;64229;52.246;21.054;2023-04-25T09:23:30;10.60;;;7.70;;
30896;SDS011;64229;52.246;21.054;2023-04-25T09:26:05;10.90;;;7.53;;
30896;SDS011;64229;52.246;21.054;2023-04-25T09:28:32;10.15;;;6.97;;
30896;SDS011;64229;52.246;21.054;2023-04-25T09:30:57;9.63;;;6.50;;
30896;SDS011;64229;52.246;21.054;2023-04-25T09:33:31;9.70;;;7.10;;
30896;SDS011;64229;52.246;21.054;2023-04-25T09:36:01;10.15;;;7.57;;
30896;SDS011;64229;52.246;21.054;2023-04-25T09:38:31;12.85;;;6.47;;
30896;SDS011;64229;52.246;21.054;2023-04-25T09:40:58;12.23;;;6.65;;
30896;SDS011;64229;52.246;21.054;2023-04-25T09:43:24;10.50;;;7.07;;
30896;SDS011;64229;52.246;21.054;2023-04-25T09:45:50;10.25;;;7.30;;
30896;SDS011;64229;52.246;21.054;2023-04-25T09:48:25;11.05;;;7.85;;
30896;SDS011;64229;52.246;21.054;2023-04-25T09:53:30;13.52;;;9.05;;
30896;SDS011;64229;52.246;21.054;2023-04-25T09:55:57;12.25;;;8.70;;
30896;SDS011;64229;52.246;21.054;2023-04-25T09:58:25;12.43;;;8.70;;
30896;SDS011;64229;52.246;21.054;2023-04-25T10:00:53;13.02;;;8.88;;
30896;SDS011;64229;52.246;21.054;2023-04-25T10:03:20;12.88;;;8.93;;
30896;SDS011;64229;52.246;21.054;2023-04-25T10:05:50;13.48;;;9.50;;
30896;SDS011;64229;52.246;21.054;2023-04-25T10:08:17;14.35;;;9.13;;
30896;SDS011;64229;52.246;21.054;2023-04-25T10:10:44;15.00;;;9.30;;
30896;SDS011;64229;52.246;21.054;2023-04-25T10:13:10;16.67;;;9.38;;
30896;SDS011;64229;52.246;21.054;2023-04-25T10:15:36;15.93;;;10.00;;
30896;SDS011;64229;52.246;21.054;2023-04-25T10:18:02;17.70;;;9.40;;
30896;SDS011;64229;52.246;21.054;2023-04-25T10:20:28;15.15;;;10.00;;
30896;SDS011;64229;52.246;21.054;2023-04-25T10:22:55;14.65;;;10.20;;
30896;SDS011;64229;52.246;21.054;2023-04-25T10:25:26;14.90;;;10.63;;
30896;SDS011;64229;52.246;21.054;2023-04-25T10:27:52;15.57;;;11.20;;
30896;SDS011;64229;52.246;21.054;2023-04-25T10:30:18;15.15;;;10.85;;
30896;SDS011;64229;52.246;21.054;2023-04-25T10:32:44;17.40;;;11.10;;
30896;SDS011;64229;52.246;21.054;2023-04-25T10:35:19;18.58;;;11.18;;
30896;SDS011;64229;52.246;21.054;2023-04-25T10:38:04;20.02;;;11.52;;
30896;SDS011;64229;52.246;21.054;2023-04-25T10:40:37;13.82;;;10.88;;
30896;SDS011;64229;52.246;21.054;2023-04-25T10:45:56;17.00;;;11.55;;
30896;SDS011;64229;52.246;21.054;2023-04-25T10:48:25;14.82;;;11.18;;
30896;SDS011;64229;52.246;21.054;2023-04-25T10:51:06;15.40;;;11.57;;
30896;SDS011;64229;52.246;21.054;2023-04-25T10:53:33;16.52;;;12.43;;
30896;SDS011;64229;52.246;21.054;2023-04-25T10:55:59;18.27;;;12.68;;
30896;SDS011;64229;52.246;21.054;2023-04-25T10:58:24;19.08;;;13.32;;
30896;SDS011;64229;52.246;21.054;2023-04-25T11:00:50;19.63;;;13.20;;
30896;SDS011;64229;52.246;21.054;2023-04-25T11:03:16;18.42;;;12.85;;
30896;SDS011;64229;52.246;21.054;2023-04-25T11:05:41;20.52;;;12.00;;
30896;SDS011;64229;52.246;21.054;2023-04-25T11:08:11;15.15;;;10.52;;
30896;SDS011;64229;52.246;21.054;2023-04-25T11:10:36;16.40;;;12.25;;
30896;SDS011;64229;52.246;21.054;2023-04-25T11:13:04;18.65;;;12.10;;
30896;SDS011;64229;52.246;21.054;2023-04-25T11:15:30;20.17;;;13.98;;
30896;SDS011;64229;52.246;21.054;2023-04-25T11:17:55;27.90;;;20.38;;
30896;SDS011;64229;52.246;21.054;2023-04-25T11:20:21;20.38;;;14.80;;
30896;SDS011;64229;52.246;21.054;2023-04-25T11:22:47;17.20;;;12.65;;
30896;SDS011;64229;52.246;21.054;2023-04-25T11:25:14;13.68;;;10.93;;
30896;SDS011;64229;52.246;21.054;2023-04-25T11:27:54;17.55;;;9.75;;
30896;SDS011;64229;52.246;21.054;2023-04-25T11:30:23;13.15;;;9.95;;
30896;SDS011;64229;52.246;21.054;2023-04-25T11:32:50;13.05;;;9.60;;
30896;SDS011;64229;52.246;21.054;2023-04-25T11:35:17;12.43;;;8.95;;
30896;SDS011;64229;52.246;21.054;2023-04-25T11:37:43;12.95;;;9.52;;
30896;SDS011;64229;52.246;21.054;2023-04-25T11:40:09;12.13;;;9.15;;
30896;SDS011;64229;52.246;21.054;2023-04-25T11:42:36;12.48;;;8.98;;
30896;SDS011;64229;52.246;21.054;2023-04-25T11:45:08;12.48;;;9.02;;
30896;SDS011;64229;52.246;21.054;2023-04-25T11:47:34;10.90;;;7.75;;
30896;SDS011;64229;52.246;21.054;2023-04-25T11:50:00;9.82;;;7.35;;
30896;SDS011;64229;52.246;21.054;2023-04-25T11:52:42;10.57;;;7.50;;
30896;SDS011;64229;52.246;21.054;2023-04-25T11:55:09;11.70;;;7.88;;
30896;SDS011;64229;52.246;21.054;2023-04-25T11:57:38;10.40;;;7.22;;
30896;SDS011;64229;52.246;21.054;2023-04-25T12:00:12;10.02;;;7.30;;
30896;SDS011;64229;52.246;21.054;2023-04-25T12:02:40;11.38;;;7.60;;
30896;SDS011;64229;52.246;21.054;2023-04-25T12:05:10;10.23;;;7.28;;
30896;SDS011;64229;52.246;21.054;2023-04-25T12:07:36;10.00;;;7.28;;
30896;SDS011;64229;52.246;21.054;2023-04-25T12:10:09;9.65;;;7.68;;
30896;SDS011;64229;52.246;21.054;2023-04-25T12:12:37;11.03;;;7.47;;
30896;SDS011;64229;52.246;21.054;2023-04-25T12:15:16;12.48;;;7.68;;
30896;SDS011;64229;52.246;21.054;2023-04-25T12:17:51;11.82;;;8.40;;
30896;SDS011;64229;52.246;21.054;2023-04-25T12:20:21;10.43;;;8.15;;
30896;SDS011;64229;52.246;21.054;2023-04-25T12:22:50;11.45;;;8.05;;
30896;SDS011;64229;52.246;21.054;2023-04-25T12:28:23;13.48;;;8.18;;
30896;SDS011;64229;52.246;21.054;2023-04-25T12:30:53;11.07;;;7.15;;
30896;SDS011;64229;52.246;21.054;2023-04-25T12:33:18;9.90;;;7.38;;
30896;SDS011;64229;52.246;21.054;2023-04-25T12:35:44;12.45;;;7.70;;
30896;SDS011;64229;52.246;21.054;2023-04-25T12:38:09;10.38;;;7.28;;
30896;SDS011;64229;52.246;21.054;2023-04-25T12:40:35;10.88;;;7.18;;
30896;SDS011;64229;52.246;21.054;2023-04-25T12:43:00;9.90;;;7.43;;
30896;SDS011;64229;52.246;21.054;2023-04-25T12:45:26;9.68;;;6.43;;
30896;SDS011;64229;52.246;21.054;2023-04-25T12:47:51;10.25;;;7.22;;
30896;SDS011;64229;52.246;21.054;2023-04-25T12:50:16;10.88;;;7.40;;
30896;SDS011;64229;52.246;21.054;2023-04-25T12:52:42;10.63;;;6.93;;
30896;SDS011;64229;52.246;21.054;2023-04-25T12:55:07;10.85;;;6.78;;
30896;SDS011;64229;52.246;21.054;2023-04-25T12:57:32;11.27;;;6.78;;
30896;SDS011;64229;52.246;21.054;2023-04-25T12:59:58;9.52;;;6.32;;
30896;SDS011;64229;52.246;21.054;2023-04-25T13:02:23;7.50;;;6.13;;
30896;SDS011;64229;52.246;21.054;2023-04-25T13:04:48;12.18;;;6.20;;
30896;SDS011;64229;52.246;21.054;2023-04-25T13:07:14;7.70;;;5.70;;
30896;SDS011;64229;52.246;21.054;2023-04-25T13:09:39;10.13;;;6.32;;
30896;SDS011;64229;52.246;21.054;2023-04-25T13:12:04;9.23;;;5.65;;
30896;SDS011;64229;52.246;21.054;2023-04-25T13:14:30;9.90;;;6.82;;
30896;SDS011;64229;52.246;21.054;2023-04-25T13:16:55;9.77;;;5.78;;
30896;SDS011;64229;52.246;21.054;2023-04-25T13:19:21;7.97;;;5.30;;
30896;SDS011;64229;52.246;21.054;2023-04-25T13:21:46;7.15;;;4.80;;
30896;SDS011;64229;52.246;21.054;2023-04-25T13:24:11;9.95;;;5.43;;
30896;SDS011;64229;52.246;21.054;2023-04-25T13:26:37;7.95;;;5.40;;
30896;SDS011;64229;52.246;21.054;2023-04-25T13:29:02;7.80;;;5.00;;
30896;SDS011;64229;52.246;21.054;2023-04-25T13:31:28;6.63;;;4.40;;
30896;SDS011;64229;52.246;21.054;2023-04-25T13:33:54;5.88;;;3.90;;
30896;SDS011;64229;52.246;21.054;2023-04-25T13:36:20;6.57;;;3.90;;
30896;SDS011;64229;52.246;21.054;2023-04-25T13:38:45;6.28;;;4.00;;
30896;SDS011;64229;52.246;21.054;2023-04-25T13:41:12;6.55;;;4.07;;
30896;SDS011;64229;52.246;21.054;2023-04-25T13:43:42;7.85;;;4.30;;
30896;SDS011;64229;52.246;21.054;2023-04-25T13:46:08;6.60;;;4.60;;
30896;SDS011;64229;52.246;21.054;2023-04-25T13:48:33;7.45;;;4.38;;
30896;SDS011;64229;52.246;21.054;2023-04-25T13:50:58;5.85;;;3.70;;
30896;SDS011;64229;52.246;21.054;2023-04-25T13:53:24;4.53;;;3.30;;
30896;SDS011;64229;52.246;21.054;2023-04-25T13:55:50;7.50;;;3.65;;
30896;SDS011;64229;52.246;21.054;2023-04-25T13:58:15;5.30;;;3.63;;
30896;SDS011;64229;52.246;21.054;2023-04-25T14:00:40;5.90;;;3.58;;
30896;SDS011;64229;52.246;21.054;2023-04-25T14:03:08;5.68;;;3.78;;
30896;SDS011;64229;52.246;21.054;2023-04-25T14:05:34;6.22;;;3.38;;
30896;SDS011;64229;52.246;21.054;2023-04-25T14:08:07;6.97;;;3.40;;
30896;SDS011;64229;52.246;21.054;2023-04-25T14:10:34;4.82;;;3.30;;
30896;SDS011;64229;52.246;21.054;2023-04-25T14:13:00;6.05;;;3.38;;
30896;SDS011;64229;52.246;21.054;2023-04-25T14:15:26;5.15;;;3.63;;
30896;SDS011;64229;52.246;21.054;2023-04-25T14:17:51;6.20;;;4.10;;
30896;SDS011;64229;52.246;21.054;2023-04-25T14:20:16;11.02;;;3.42;;
30896;SDS011;64229;52.246;21.054;2023-04-25T14:22:45;5.47;;;3.92;;
30896;SDS011;64229;52.246;21.054;2023-04-25T14:25:10;5.30;;;3.47;;
30896;SDS011;64229;52.246;21.054;2023-04-25T14:27:36;5.32;;;4.00;;